createdAt,value
2023-05-02T00:02:23.022Z,97245.44
2023-05-02T00:04:49.569Z,97242.84
2023-05-02T00:07:15.970Z,97239.41
2023-05-02T00:09:42.433Z,97244.91
2023-05-02T00:12:08.825Z,97231.22
2023-05-02T00:14:35.282Z,97238.53
2023-05-02T00:17:03.175Z,97235.44
2023-05-02T00:19:29.684Z,97226.28
2023-05-02T00:21:56.117Z,97225.47
2023-05-02T00:24:22.511Z,97228.00
2023-05-02T00:26:48.994Z,97222.22
2023-05-02T00:29:15.476Z,97223.63
2023-05-02T00:31:41.932Z,97222.22
2023-05-02T00:34:08.500Z,97219.53
2023-05-02T00:36:34.953Z,97219.97
2023-05-02T00:39:04.330Z,97222.66
2023-05-02T00:41:30.752Z,97226.78
2023-05-02T00:43:57.286Z,97222.66
2023-05-02T00:46:23.867Z,97224.94
2023-05-02T00:48:50.525Z,97224.47
2023-05-02T00:51:17.037Z,97220.81
2023-05-02T00:53:43.508Z,97223.75
2023-05-02T00:56:09.973Z,97223.81
2023-05-02T00:58:36.507Z,97221.19
2023-05-02T01:01:02.980Z,97224.50
2023-05-02T01:03:29.524Z,97229.91
2023-05-02T01:05:56.045Z,97235.41
2023-05-02T01:08:22.430Z,97225.41
2023-05-02T01:10:48.960Z,97224.00
2023-05-02T01:13:15.401Z,97229.41
2023-05-02T01:15:41.864Z,97232.00
2023-05-02T01:18:08.366Z,97228.03
2023-05-02T01:20:34.835Z,97234.47
2023-05-02T01:23:01.251Z,97232.16
2023-05-02T01:25:27.643Z,97228.72
2023-05-02T01:27:54.117Z,97221.66
2023-05-02T01:30:20.646Z,97226.59
2023-05-02T01:32:47.198Z,97226.00
2023-05-02T01:35:13.684Z,97222.56
2023-05-02T01:37:40.225Z,97226.78
2023-05-02T01:40:06.638Z,97226.50
2023-05-02T01:42:33.084Z,97232.03
2023-05-02T01:44:59.428Z,97234.72
2023-05-02T01:47:27.312Z,97230.75
2023-05-02T01:49:53.736Z,97233.69
2023-05-02T01:52:20.209Z,97229.31
2023-05-02T01:54:46.629Z,97230.16
2023-05-02T01:57:13.043Z,97230.06
2023-05-02T01:59:39.581Z,97228.22
2023-05-02T02:02:11.180Z,97234.88
2023-05-02T02:04:37.750Z,97234.66
2023-05-02T02:07:04.253Z,97233.75
2023-05-02T02:09:30.738Z,97241.22
2023-05-02T02:11:57.163Z,97240.97
2023-05-02T02:14:23.593Z,97246.28
2023-05-02T02:16:50.118Z,97244.19
2023-05-02T02:19:16.709Z,97240.66
2023-05-02T02:21:43.172Z,97248.75
2023-05-02T02:24:09.655Z,97240.47
2023-05-02T02:26:36.133Z,97236.56
2023-05-02T02:29:02.684Z,97242.59
2023-05-02T02:31:29.262Z,97245.31
2023-05-02T02:33:55.797Z,97236.38
2023-05-02T02:36:22.298Z,97237.59
2023-05-02T02:38:48.756Z,97244.16
2023-05-02T02:41:15.265Z,97243.16
2023-05-02T02:43:41.732Z,97242.78
2023-05-02T02:46:08.283Z,97245.25
2023-05-02T02:48:34.805Z,97234.44
2023-05-02T02:51:01.186Z,97244.28
2023-05-02T02:53:27.607Z,97242.41
2023-05-02T02:55:54.032Z,97246.63
2023-05-02T02:58:20.462Z,97243.75
2023-05-02T03:00:46.836Z,97243.16
2023-05-02T03:03:13.473Z,97243.75
2023-05-02T03:05:40.043Z,97243.28
2023-05-02T03:08:06.468Z,97237.19
2023-05-02T03:10:32.980Z,97231.44
2023-05-02T03:15:39.823Z,97230.69
2023-05-02T03:18:06.322Z,97237.06
2023-05-02T03:20:38.882Z,97235.63
2023-05-02T03:23:05.448Z,97236.84
2023-05-02T03:25:31.953Z,97244.25
2023-05-02T03:27:58.381Z,97247.13
2023-05-02T03:30:25.139Z,97250.19
2023-05-02T03:32:57.537Z,97246.44
2023-05-02T03:35:25.947Z,97246.69
2023-05-02T03:37:52.434Z,97247.94
2023-05-02T03:40:18.858Z,97254.63
2023-05-02T03:42:45.300Z,97254.63
2023-05-02T03:45:11.744Z,97260.69
2023-05-02T03:47:38.258Z,97257.03
2023-05-02T03:50:04.801Z,97253.94
2023-05-02T03:52:31.286Z,97259.00
2023-05-02T03:54:57.803Z,97266.94
2023-05-02T03:57:24.229Z,97261.94
2023-05-02T03:59:52.371Z,97270.94
2023-05-02T04:02:18.828Z,97274.84
2023-05-02T04:04:45.376Z,97271.97
2023-05-02T04:07:11.853Z,97267.44
2023-05-02T04:09:38.287Z,97270.56
2023-05-02T04:12:04.760Z,97265.00
2023-05-02T04:14:31.137Z,97264.56
2023-05-02T04:16:57.609Z,97262.66
2023-05-02T04:19:24.099Z,97258.34
2023-05-02T04:21:50.604Z,97257.34
2023-05-02T04:24:16.985Z,97256.69
2023-05-02T04:26:43.450Z,97257.91
2023-05-02T04:29:10.010Z,97260.00
2023-05-02T04:31:36.601Z,97267.25
2023-05-02T04:34:03.281Z,97270.41
2023-05-02T04:36:29.828Z,97268.28
2023-05-02T04:38:56.404Z,97273.28
2023-05-02T04:41:22.979Z,97272.81
2023-05-02T04:43:49.558Z,97266.56
2023-05-02T04:46:15.988Z,97263.28
2023-05-02T04:48:42.442Z,97256.00
2023-05-02T04:51:08.845Z,97268.69
2023-05-02T04:53:35.242Z,97271.97
2023-05-02T04:56:01.705Z,97275.53
2023-05-02T04:58:28.488Z,97262.03
2023-05-02T05:00:57.110Z,97267.66
2023-05-02T05:03:32.789Z,97280.31
2023-05-02T05:08:50.838Z,97285.13
2023-05-02T05:11:17.347Z,97292.59
2023-05-02T05:13:43.872Z,97300.69
2023-05-02T05:16:13.500Z,97307.97
2023-05-02T05:18:44.443Z,97315.28
2023-05-02T05:21:10.912Z,97306.72
2023-05-02T05:23:37.323Z,97304.63
2023-05-02T05:26:03.767Z,97311.84
2023-05-02T05:28:30.306Z,97331.47
2023-05-02T05:30:56.762Z,97346.16
2023-05-02T05:33:23.257Z,97348.38
2023-05-02T05:35:49.724Z,97349.38
2023-05-02T05:38:16.230Z,97347.91
2023-05-02T05:43:32.956Z,97360.53
2023-05-02T05:45:59.405Z,97370.31
2023-05-02T05:48:25.874Z,97374.50
2023-05-02T05:53:42.884Z,97380.94
2023-05-02T05:59:11.789Z,97381.91
2023-05-02T06:01:38.267Z,97383.53
2023-05-02T06:04:05.055Z,97379.56
2023-05-02T06:06:31.701Z,97373.72
2023-05-02T06:08:58.205Z,97372.47
2023-05-02T06:11:24.647Z,97368.50
2023-05-02T06:13:51.081Z,97367.69
2023-05-02T06:16:17.648Z,97365.81
2023-05-02T06:18:44.250Z,97367.25
2023-05-02T06:21:10.688Z,97371.00
2023-05-02T06:23:40.108Z,97379.69
2023-05-02T06:26:06.548Z,97385.31
2023-05-02T06:28:32.997Z,97388.63
2023-05-02T06:30:59.669Z,97385.06
2023-05-02T06:33:26.128Z,97390.69
2023-05-02T06:35:52.496Z,97391.91
2023-05-02T06:38:19.100Z,97396.84
2023-05-02T06:40:45.523Z,97385.81
2023-05-02T06:43:11.869Z,97392.91
2023-05-02T06:45:38.215Z,97388.31
2023-05-02T06:48:04.652Z,97392.44
2023-05-02T06:50:37.195Z,97387.88
2023-05-02T06:53:03.669Z,97390.75
2023-05-02T06:55:30.096Z,97391.97
2023-05-02T06:57:56.469Z,97388.88
2023-05-02T07:00:23.002Z,97388.50
2023-05-02T07:02:52.217Z,97388.09
2023-05-02T07:05:26.853Z,97397.66
2023-05-02T07:07:53.332Z,97397.88
2023-05-02T07:10:19.856Z,97393.25
2023-05-02T07:12:46.363Z,97400.72
2023-05-02T07:15:12.905Z,97396.63
2023-05-02T07:17:39.373Z,97398.72
2023-05-02T07:20:05.962Z,97404.75
2023-05-02T07:22:32.423Z,97402.03
2023-05-02T07:24:59.877Z,97408.66
2023-05-02T07:27:41.620Z,97402.38
2023-05-02T07:30:08.670Z,97403.59
2023-05-02T07:32:35.263Z,97399.41
2023-05-02T07:35:01.952Z,97403.97
2023-05-02T07:37:28.428Z,97400.84
2023-05-02T07:39:54.882Z,97405.41
2023-05-02T07:42:22.668Z,97402.69
2023-05-02T07:44:53.009Z,97413.06
2023-05-02T07:47:19.565Z,97415.34
2023-05-02T07:49:45.993Z,97407.03
2023-05-02T07:52:12.428Z,97407.41
2023-05-02T07:54:38.877Z,97410.94
2023-05-02T07:57:05.341Z,97406.94
2023-05-02T07:59:31.832Z,97391.34
2023-05-02T08:01:58.323Z,97389.91
2023-05-02T08:04:28.360Z,97404.44
2023-05-02T08:06:55.125Z,97393.78
2023-05-02T08:09:24.331Z,97390.88
2023-05-02T08:11:50.867Z,97386.88
2023-05-02T08:14:17.285Z,97379.19
2023-05-02T08:16:45.576Z,97369.16
2023-05-02T08:19:12.995Z,97374.56
2023-05-02T08:21:39.559Z,97370.00
2023-05-02T08:24:06.039Z,97371.00
2023-05-02T08:26:32.471Z,97371.34
2023-05-02T08:28:59.000Z,97369.03
2023-05-02T08:31:25.528Z,97380.91
2023-05-02T08:33:52.000Z,97373.78
2023-05-02T08:36:18.476Z,97371.16
2023-05-02T08:38:44.987Z,97373.09
2023-05-02T08:41:11.472Z,97384.38
2023-05-02T08:43:37.906Z,97378.69
2023-05-02T08:46:04.352Z,97379.50
2023-05-02T08:48:30.817Z,97379.69
2023-05-02T08:50:57.283Z,97390.16
2023-05-02T08:53:23.694Z,97384.88
2023-05-02T08:55:50.161Z,97376.00
2023-05-02T08:58:17.712Z,97385.47
2023-05-02T09:00:44.283Z,97381.41
2023-05-02T09:03:10.876Z,97379.06
2023-05-02T09:05:37.385Z,97377.78
2023-05-02T09:08:03.831Z,97384.53
2023-05-02T09:10:30.292Z,97383.69
2023-05-02T09:12:56.696Z,97381.47
2023-05-02T09:15:23.191Z,97383.66
2023-05-02T09:17:49.685Z,97389.00
2023-05-02T09:20:16.179Z,97384.66
2023-05-02T09:22:42.585Z,97392.50
2023-05-02T09:25:09.072Z,97386.16
2023-05-02T09:27:35.612Z,97386.16
2023-05-02T09:30:02.153Z,97384.88
2023-05-02T09:32:28.749Z,97384.94
2023-05-02T09:34:55.261Z,97383.28
2023-05-02T09:37:21.654Z,97389.19
2023-05-02T09:39:48.136Z,97383.06
2023-05-02T09:42:14.601Z,97384.34
2023-05-02T09:44:41.076Z,97385.53
2023-05-02T09:47:07.492Z,97383.38
2023-05-02T09:49:34.080Z,97382.34
2023-05-02T09:52:00.589Z,97375.50
2023-05-02T09:54:27.068Z,97372.31
2023-05-02T09:56:53.549Z,97372.38
2023-05-02T09:59:20.057Z,97374.53
2023-05-02T10:01:46.530Z,97371.84
2023-05-02T10:04:13.061Z,97370.44
2023-05-02T10:06:41.222Z,97374.25
2023-05-02T10:09:07.728Z,97373.69
2023-05-02T10:11:34.256Z,97365.81
2023-05-02T10:14:00.751Z,97377.38
2023-05-02T10:16:27.221Z,97365.34
2023-05-02T10:18:53.729Z,97373.25
2023-05-02T10:21:22.953Z,97368.59
2023-05-02T10:23:49.386Z,97366.31
2023-05-02T10:26:15.936Z,97361.13
2023-05-02T10:28:42.503Z,97362.88
2023-05-02T10:31:09.017Z,97362.06
2023-05-02T10:33:35.537Z,97361.97
2023-05-02T10:36:01.993Z,97360.69
2023-05-02T10:38:35.779Z,97363.97
2023-05-02T10:41:02.262Z,97360.44
2023-05-02T10:43:28.714Z,97362.69
2023-05-02T10:45:55.191Z,97362.09
2023-05-02T10:48:21.646Z,97365.19
2023-05-02T10:50:48.093Z,97367.19
2023-05-02T10:53:14.586Z,97362.72
2023-05-02T10:55:40.960Z,97363.50
2023-05-02T10:58:07.423Z,97363.63
2023-05-02T11:00:34.137Z,97362.34
2023-05-02T11:03:00.926Z,97366.22
2023-05-02T11:05:27.392Z,97359.13
2023-05-02T11:07:53.820Z,97354.53
2023-05-02T11:10:20.207Z,97359.84
2023-05-02T11:12:46.629Z,97350.03
2023-05-02T11:15:13.095Z,97349.34
2023-05-02T11:17:39.625Z,97353.28
2023-05-02T11:20:06.093Z,97348.88
2023-05-02T11:22:32.533Z,97348.19
2023-05-02T11:24:59.160Z,97347.63
2023-05-02T11:27:26.627Z,97350.16
2023-05-02T11:29:53.026Z,97340.22
2023-05-02T11:32:21.302Z,97340.78
2023-05-02T11:34:47.894Z,97338.66
2023-05-02T11:37:14.321Z,97345.59
2023-05-02T11:39:40.736Z,97337.25
2023-05-02T11:42:07.090Z,97338.97
2023-05-02T11:44:33.545Z,97344.84
2023-05-02T11:46:59.940Z,97336.72
2023-05-02T11:52:10.379Z,97333.34
2023-05-02T11:54:36.811Z,97332.91
2023-05-02T11:57:03.212Z,97326.34
2023-05-02T11:59:29.606Z,97326.66
2023-05-02T12:01:56.032Z,97328.81
2023-05-02T12:04:22.597Z,97331.53
2023-05-02T12:06:59.989Z,97334.63
2023-05-02T12:09:26.489Z,97324.75
2023-05-02T12:11:53.022Z,97331.19
2023-05-02T12:14:19.476Z,97334.31
2023-05-02T12:16:46.090Z,97327.31
2023-05-02T12:19:12.675Z,97330.69
2023-05-02T12:21:39.143Z,97323.44
2023-05-02T12:24:08.773Z,97336.13
2023-05-02T12:26:42.601Z,97334.38
2023-05-02T12:29:09.120Z,97339.66
2023-05-02T12:31:35.639Z,97333.16
2023-05-02T12:36:42.399Z,97334.13
2023-05-02T12:39:08.838Z,97343.78
2023-05-02T12:41:35.222Z,97343.53
2023-05-02T12:44:01.768Z,97335.91
2023-05-02T12:46:28.246Z,97340.19
2023-05-02T12:48:54.658Z,97334.84
2023-05-02T12:51:21.116Z,97331.97
2023-05-02T12:53:52.253Z,97326.44
2023-05-02T12:56:18.714Z,97323.53
2023-05-02T12:58:52.690Z,97325.50
2023-05-02T13:01:19.149Z,97320.31
2023-05-02T13:03:45.700Z,97316.31
2023-05-02T13:06:12.157Z,97321.91
2023-05-02T13:08:38.639Z,97329.50
2023-05-02T13:11:05.066Z,97328.47
2023-05-02T13:13:33.653Z,97330.41
2023-05-02T13:16:02.643Z,97323.38
2023-05-02T13:18:29.160Z,97326.25
2023-05-02T13:20:55.632Z,97315.81
2023-05-02T13:23:22.138Z,97311.88
2023-05-02T13:25:48.517Z,97306.78
2023-05-02T13:28:14.929Z,97308.44
2023-05-02T13:30:41.447Z,97306.56
2023-05-02T13:33:07.994Z,97303.25
2023-05-02T13:35:35.389Z,97300.69
2023-05-02T13:38:01.922Z,97302.38
2023-05-02T13:40:28.396Z,97294.97
2023-05-02T13:42:54.886Z,97298.38
2023-05-02T13:45:21.371Z,97297.75
2023-05-02T13:47:47.882Z,97299.44
2023-05-02T13:50:14.287Z,97297.50
2023-05-02T13:52:40.665Z,97293.03
2023-05-02T13:55:07.100Z,97289.78
2023-05-02T13:57:33.743Z,97278.16
2023-05-02T14:00:00.344Z,97279.53
2023-05-02T14:02:27.154Z,97284.31
2023-05-02T14:04:53.656Z,97289.69
2023-05-02T14:07:20.038Z,97290.97
2023-05-02T14:09:46.472Z,97291.09
2023-05-02T14:12:12.916Z,97285.19
2023-05-02T14:14:40.414Z,97286.72
2023-05-02T14:17:06.901Z,97282.78
2023-05-02T14:19:33.394Z,97284.09
2023-05-02T14:21:59.883Z,97283.66
2023-05-02T14:27:07.698Z,97277.88
2023-05-02T14:29:34.179Z,97279.97
2023-05-02T14:32:04.107Z,97276.28
2023-05-02T14:34:30.538Z,97271.91
2023-05-02T14:36:57.073Z,97273.50
2023-05-02T14:39:23.585Z,97269.03
2023-05-02T14:41:49.931Z,97270.81
2023-05-02T14:44:16.362Z,97271.28
2023-05-02T14:46:42.775Z,97273.47
2023-05-02T14:51:49.499Z,97277.34
2023-05-02T14:54:15.907Z,97268.44
2023-05-02T14:56:42.388Z,97275.31
2023-05-02T14:59:08.773Z,97273.31
2023-05-02T15:01:40.343Z,97270.91
2023-05-02T15:04:08.008Z,97275.38
2023-05-02T15:06:35.934Z,97281.03
2023-05-02T15:09:03.351Z,97276.69
2023-05-02T15:11:29.950Z,97269.38
2023-05-02T15:13:58.453Z,97260.47
2023-05-02T15:16:25.771Z,97270.78
2023-05-02T15:18:52.197Z,97269.81
2023-05-02T15:21:18.634Z,97271.31
2023-05-02T15:23:47.254Z,97275.66
2023-05-02T15:26:14.094Z,97270.94
2023-05-02T15:31:21.404Z,97274.84
2023-05-02T15:33:48.131Z,97275.19
2023-05-02T15:36:14.566Z,97277.09
2023-05-02T15:38:41.534Z,97273.81
2023-05-02T15:41:08.046Z,97277.91
2023-05-02T15:43:34.966Z,97280.50
2023-05-02T15:46:03.647Z,97267.34
2023-05-02T15:48:30.342Z,97278.69
2023-05-02T15:50:56.891Z,97282.22
2023-05-02T15:53:23.356Z,97288.34
2023-05-02T15:55:49.798Z,97285.16
2023-05-02T15:58:16.228Z,97287.78
2023-05-02T16:00:42.696Z,97290.03
2023-05-02T16:03:09.151Z,97279.09
2023-05-02T16:05:35.793Z,97287.25
2023-05-02T16:08:07.552Z,97285.72
2023-05-02T16:10:34.053Z,97290.84
2023-05-02T16:13:00.523Z,97285.81
2023-05-02T16:15:27.128Z,97283.56
2023-05-02T16:17:53.701Z,97290.22
2023-05-02T16:20:20.109Z,97284.44
2023-05-02T16:22:46.504Z,97288.72
2023-05-02T16:25:27.905Z,97295.09
2023-05-02T16:27:54.338Z,97300.41
2023-05-02T16:30:20.781Z,97316.16
2023-05-02T16:32:47.239Z,97299.88
2023-05-02T16:35:13.750Z,97302.53
2023-05-02T16:37:40.213Z,97298.41
2023-05-02T16:40:07.202Z,97303.41
2023-05-02T16:42:33.966Z,97301.75
2023-05-02T16:45:00.401Z,97306.25
2023-05-02T16:47:26.985Z,97307.06
2023-05-02T16:49:53.501Z,97307.72
2023-05-02T16:52:19.997Z,97311.94
2023-05-02T16:54:46.497Z,97306.78
2023-05-02T16:57:12.954Z,97311.22
2023-05-02T16:59:39.501Z,97309.06
2023-05-02T17:02:06.057Z,97310.66
2023-05-02T17:04:32.536Z,97305.63
2023-05-02T17:06:59.054Z,97320.59
2023-05-02T17:09:25.562Z,97319.19
2023-05-02T17:11:52.076Z,97311.81
2023-05-02T17:14:18.460Z,97322.81
2023-05-02T17:16:44.968Z,97309.53
2023-05-02T17:19:11.617Z,97314.47
2023-05-02T17:21:38.155Z,97313.13
2023-05-02T17:24:05.457Z,97308.22
2023-05-02T17:26:39.943Z,97312.59
2023-05-02T17:29:06.405Z,97310.09
2023-05-02T17:31:32.991Z,97310.13
2023-05-02T17:33:59.626Z,97319.97
2023-05-02T17:36:26.251Z,97311.22
2023-05-02T17:38:52.765Z,97311.22
2023-05-02T17:41:19.272Z,97319.16
2023-05-02T17:43:45.986Z,97317.25
2023-05-02T17:46:13.876Z,97329.56
2023-05-02T17:48:40.448Z,97333.06
2023-05-02T17:51:07.026Z,97329.22
2023-05-02T17:53:33.650Z,97333.84
2023-05-02T17:56:00.128Z,97334.78
2023-05-02T17:58:26.542Z,97341.84
2023-05-02T18:00:53.028Z,97336.19
2023-05-02T18:03:20.682Z,97340.44
2023-05-02T18:05:47.158Z,97329.13
2023-05-02T18:08:13.751Z,97346.78
2023-05-02T18:10:40.168Z,97343.78
2023-05-02T18:13:06.737Z,97339.28
2023-05-02T18:15:33.168Z,97341.59
2023-05-02T18:17:59.645Z,97340.34
2023-05-02T18:20:26.107Z,97333.44
2023-05-02T18:22:52.612Z,97348.50
2023-05-02T18:25:19.070Z,97336.09
2023-05-02T18:27:45.531Z,97357.78
2023-05-02T18:30:12.038Z,97346.84
2023-05-02T18:32:38.533Z,97349.63
2023-05-02T18:35:05.060Z,97345.09
2023-05-02T18:37:31.819Z,97349.84
2023-05-02T18:39:58.309Z,97337.31
2023-05-02T18:42:24.924Z,97352.53
2023-05-02T18:44:51.820Z,97354.00
2023-05-02T18:47:18.268Z,97349.25
2023-05-02T18:49:44.739Z,97351.72
2023-05-02T18:52:11.695Z,97355.06
2023-05-02T18:54:39.473Z,97362.84
2023-05-02T18:57:10.782Z,97375.78
2023-05-02T18:59:40.252Z,97374.03
2023-05-02T19:02:06.677Z,97398.53
2023-05-02T19:04:34.647Z,97395.50
2023-05-02T19:07:01.046Z,97401.25
2023-05-02T19:09:27.493Z,97398.94
2023-05-02T19:11:54.001Z,97406.03
2023-05-02T19:14:21.001Z,97427.13
2023-05-02T19:19:27.661Z,97406.34
2023-05-02T19:21:54.126Z,97402.22
2023-05-02T19:24:20.601Z,97407.38
2023-05-02T19:26:47.066Z,97398.50
2023-05-02T19:29:13.942Z,97391.09
2023-05-02T19:31:40.370Z,97396.94
2023-05-02T19:34:06.855Z,97396.94
2023-05-02T19:36:33.305Z,97398.59
2023-05-02T19:38:59.817Z,97403.91
2023-05-02T19:41:26.218Z,97388.28
2023-05-02T19:43:52.653Z,97385.53
2023-05-02T19:46:19.164Z,97388.53
2023-05-02T19:48:45.690Z,97395.28
2023-05-02T19:51:12.157Z,97395.34
2023-05-02T19:53:38.604Z,97402.09
2023-05-02T19:56:05.018Z,97406.94
2023-05-02T19:58:34.145Z,97385.09
2023-05-02T20:01:00.707Z,97395.31
2023-05-02T20:03:27.275Z,97391.19
2023-05-02T20:05:53.774Z,97404.16
2023-05-02T20:08:21.525Z,97406.41
2023-05-02T20:10:49.278Z,97403.44
2023-05-02T20:13:15.742Z,97400.25
2023-05-02T20:15:42.178Z,97408.75
2023-05-02T20:18:08.597Z,97403.63
2023-05-02T20:20:35.064Z,97409.81
2023-05-02T20:23:01.484Z,97409.28
2023-05-02T20:25:27.866Z,97399.69
2023-05-02T20:27:54.277Z,97407.53
2023-05-02T20:30:20.720Z,97407.88
2023-05-02T20:32:47.369Z,97405.88
2023-05-02T20:37:54.120Z,97409.50
2023-05-02T20:40:20.510Z,97400.75
2023-05-02T20:42:46.932Z,97405.03
2023-05-02T20:45:13.285Z,97407.19
2023-05-02T20:47:39.670Z,97404.97
2023-05-02T20:50:06.146Z,97405.78
2023-05-02T20:52:40.015Z,97401.44
2023-05-02T20:55:06.542Z,97396.41
2023-05-02T20:57:33.020Z,97402.75
2023-05-02T21:00:07.150Z,97402.66
2023-05-02T21:02:33.693Z,97398.63
2023-05-02T21:05:00.153Z,97396.47
2023-05-02T21:10:06.792Z,97397.72
2023-05-02T21:12:33.173Z,97389.19
2023-05-02T21:14:59.566Z,97384.91
2023-05-02T21:17:26.108Z,97379.97
2023-05-02T21:19:52.619Z,97375.53
2023-05-02T21:22:19.013Z,97372.97
2023-05-02T21:24:45.394Z,97378.34
2023-05-02T21:27:11.842Z,97380.47
2023-05-02T21:29:38.304Z,97383.34
2023-05-02T21:32:04.815Z,97381.38
2023-05-02T21:34:31.365Z,97386.63
2023-05-02T21:36:57.836Z,97393.97
2023-05-02T21:39:24.314Z,97387.94
2023-05-02T21:41:50.737Z,97382.75
2023-05-02T21:44:17.175Z,97389.00
2023-05-02T21:46:46.568Z,97388.09
2023-05-02T21:49:15.732Z,97392.41
2023-05-02T21:51:42.190Z,97392.63
2023-05-02T21:54:08.599Z,97387.81
2023-05-02T21:56:34.947Z,97404.75
2023-05-02T21:59:01.278Z,97404.06
2023-05-02T22:01:27.678Z,97401.47
2023-05-02T22:03:54.149Z,97412.03
2023-05-02T22:06:20.644Z,97406.81
2023-05-02T22:08:48.264Z,97407.09
2023-05-02T22:11:14.680Z,97418.56
2023-05-02T22:13:41.096Z,97413.97
2023-05-02T22:16:07.736Z,97416.69
2023-05-02T22:18:34.262Z,97415.97
2023-05-02T22:21:00.706Z,97417.72
2023-05-02T22:23:27.122Z,97414.91
2023-05-02T22:25:53.513Z,97419.50
2023-05-02T22:28:19.945Z,97425.41
2023-05-02T22:30:46.471Z,97426.97
2023-05-02T22:33:12.965Z,97420.25
2023-05-02T22:35:39.463Z,97423.31
2023-05-02T22:38:05.837Z,97427.94
2023-05-02T22:40:32.264Z,97428.50
2023-05-02T22:42:58.792Z,97434.91
2023-05-02T22:45:25.204Z,97439.75
2023-05-02T22:47:51.636Z,97438.31
2023-05-02T22:50:18.118Z,97437.06
2023-05-02T22:52:44.527Z,97432.06
2023-05-02T22:55:11.074Z,97435.59
2023-05-02T23:00:17.896Z,97429.47
2023-05-02T23:02:44.440Z,97437.53
2023-05-02T23:05:10.952Z,97433.84
2023-05-02T23:07:37.448Z,97440.94
2023-05-02T23:10:04.105Z,97441.25
2023-05-02T23:12:30.864Z,97436.88
2023-05-02T23:14:58.422Z,97438.56
2023-05-02T23:17:32.480Z,97441.50
2023-05-02T23:19:59.417Z,97439.28
2023-05-02T23:22:25.966Z,97437.28
2023-05-02T23:24:52.378Z,97439.84
2023-05-02T23:27:18.900Z,97446.09
2023-05-02T23:29:45.401Z,97436.19
2023-05-02T23:32:11.788Z,97437.00
2023-05-02T23:34:38.255Z,97438.19
2023-05-02T23:37:04.762Z,97441.97
2023-05-02T23:39:31.153Z,97436.44
2023-05-02T23:41:57.619Z,97432.63
2023-05-02T23:44:24.059Z,97441.72
2023-05-02T23:46:50.627Z,97441.72
2023-05-02T23:49:17.257Z,97442.78
2023-05-02T23:51:43.978Z,97443.56
2023-05-02T23:54:14.054Z,97440.53
2023-05-02T23:56:49.572Z,97440.75
2023-05-02T23:59:22.936Z,97444.13
